createdAt,value
2018-04-13T00:00:21.510Z,39.10
2018-04-13T00:01:21.431Z,35.00
2018-04-13T00:02:21.316Z,35.00
2018-04-13T00:03:21.225Z,35.20
2018-04-13T00:04:21.134Z,39.70
2018-04-13T00:05:21.031Z,32.50
2018-04-13T00:06:20.943Z,34.60
2018-04-13T00:07:21.098Z,36.90
2018-04-13T00:08:20.745Z,37.10
2018-04-13T00:09:20.658Z,34.30
2018-04-13T00:10:20.564Z,35.90
2018-04-13T00:11:20.460Z,35.50
2018-04-13T00:12:20.370Z,36.90
2018-04-13T00:13:20.279Z,36.30
2018-04-13T00:14:20.175Z,36.80
2018-04-13T00:15:20.086Z,37.10
2018-04-13T00:16:19.993Z,36.30
2018-04-13T00:17:19.892Z,36.00
2018-04-13T00:18:19.801Z,34.60
2018-04-13T00:19:19.722Z,36.30
2018-04-13T00:20:19.624Z,40.20
2018-04-13T00:21:19.516Z,37.30
2018-04-13T00:22:19.425Z,34.20
2018-04-13T00:23:19.322Z,36.00
2018-04-13T00:24:19.231Z,36.10
2018-04-13T00:25:19.139Z,35.30
2018-04-13T00:26:19.037Z,34.50
2018-04-13T00:27:19.196Z,38.10
2018-04-13T00:28:18.854Z,36.40
2018-04-13T00:29:18.754Z,37.20
2018-04-13T00:30:18.662Z,36.40
2018-04-13T00:31:18.569Z,39.00
2018-04-13T00:32:18.490Z,36.20
2018-04-13T00:33:18.376Z,39.10
2018-04-13T00:34:18.285Z,34.10
2018-04-13T00:35:18.195Z,34.30
2018-04-13T00:36:18.093Z,38.80
2018-04-13T00:37:18.002Z,32.30
2018-04-13T00:38:17.909Z,35.80
2018-04-13T00:39:17.807Z,38.10
2018-04-13T00:40:17.715Z,35.10
2018-04-13T00:41:17.614Z,35.00
2018-04-13T00:42:17.522Z,35.30
2018-04-13T00:43:17.430Z,33.20
2018-04-13T00:44:17.340Z,39.20
2018-04-13T00:45:17.237Z,34.60
2018-04-13T00:46:17.146Z,35.20
2018-04-13T00:47:17.056Z,34.70
2018-04-13T00:48:16.952Z,32.90
2018-04-13T00:49:16.860Z,33.80
2018-04-13T00:50:16.770Z,35.80
2018-04-13T00:51:16.667Z,31.70
2018-04-13T00:52:16.825Z,34.40
2018-04-13T00:53:16.486Z,32.40
2018-04-13T00:54:16.383Z,31.90
2018-04-13T00:55:16.303Z,36.00
2018-04-13T00:56:16.199Z,35.70
2018-04-13T00:57:16.096Z,34.50
2018-04-13T00:58:16.005Z,33.30
2018-04-13T00:59:15.915Z,33.90
2018-04-13T01:00:15.812Z,41.00
2018-04-13T01:01:15.720Z,31.60
2018-04-13T01:02:15.930Z,33.70
2018-04-13T01:03:15.526Z,35.60
2018-04-13T01:04:15.435Z,33.00
2018-04-13T01:05:15.345Z,34.60
2018-04-13T01:06:15.242Z,33.90
2018-04-13T01:07:15.151Z,38.30
2018-04-13T01:08:15.060Z,34.50
2018-04-13T01:09:14.957Z,35.20
2018-04-13T01:10:14.865Z,34.60
2018-04-13T01:11:14.775Z,38.50
2018-04-13T01:12:14.673Z,36.00
2018-04-13T01:13:14.580Z,36.40
2018-04-13T01:14:14.492Z,34.20
2018-04-13T01:15:14.389Z,34.80
2018-04-13T01:16:14.295Z,36.90
2018-04-13T01:17:14.205Z,34.70
2018-04-13T01:18:14.102Z,34.70
2018-04-13T01:19:14.011Z,37.50
2018-04-13T01:20:13.920Z,34.90
2018-04-13T01:21:13.817Z,34.70
2018-04-13T01:22:13.725Z,34.70
2018-04-13T01:23:13.637Z,34.40
2018-04-13T01:24:13.532Z,35.10
2018-04-13T01:25:13.440Z,33.40
2018-04-13T01:26:13.351Z,35.80
2018-04-13T01:27:13.247Z,35.40
2018-04-13T01:28:13.155Z,35.30
2018-04-13T01:29:13.068Z,34.10
2018-04-13T01:30:12.962Z,37.50
2018-04-13T01:31:12.878Z,34.40
2018-04-13T01:32:12.782Z,37.80
2018-04-13T01:33:12.681Z,35.80
2018-04-13T01:34:12.586Z,33.80
2018-04-13T01:35:12.496Z,39.20
2018-04-13T01:36:12.392Z,35.70
2018-04-13T01:37:12.301Z,35.20
2018-04-13T01:38:12.210Z,35.30
2018-04-13T01:39:12.107Z,34.40
2018-04-13T01:40:12.016Z,35.10
2018-04-13T01:41:11.926Z,37.40
2018-04-13T01:42:11.823Z,36.20
2018-04-13T01:43:11.731Z,37.10
2018-04-13T01:44:11.641Z,34.30
2018-04-13T01:45:11.546Z,36.30
2018-04-13T01:46:11.450Z,39.30
2018-04-13T01:47:11.355Z,35.60
2018-04-13T01:48:11.253Z,38.90
2018-04-13T01:49:11.161Z,34.20
2018-04-13T01:50:11.073Z,35.70
2018-04-13T01:51:10.969Z,34.40
2018-04-13T01:52:11.128Z,33.60
2018-04-13T01:53:10.786Z,34.90
2018-04-13T01:54:10.686Z,34.20
2018-04-13T01:55:10.591Z,37.00
2018-04-13T01:56:10.500Z,42.80
2018-04-13T01:57:10.397Z,35.60
2018-04-13T01:58:10.305Z,36.90
2018-04-13T01:59:10.216Z,36.00
2018-04-13T02:00:10.113Z,38.00
2018-04-13T02:01:10.021Z,36.10
2018-04-13T02:02:10.230Z,35.80
2018-04-13T02:03:09.829Z,31.40
2018-04-13T02:04:09.735Z,37.20
2018-04-13T02:05:09.636Z,42.70
2018-04-13T02:06:09.543Z,34.90
2018-04-13T02:07:09.451Z,41.00
2018-04-13T02:08:09.361Z,33.60
2018-04-13T02:09:09.257Z,36.20
2018-04-13T02:10:09.170Z,35.90
2018-04-13T02:11:09.065Z,34.80
2018-04-13T02:12:08.976Z,34.40
2018-04-13T02:13:08.882Z,36.10
2018-04-13T02:14:08.779Z,35.00
2018-04-13T02:15:08.688Z,37.00
2018-04-13T02:16:08.597Z,34.80
2018-04-13T02:17:08.494Z,34.50
2018-04-13T02:18:08.403Z,34.90
2018-04-13T02:19:08.317Z,34.30
2018-04-13T02:20:08.208Z,32.50
2018-04-13T02:21:08.118Z,34.20
2018-04-13T02:22:08.026Z,32.10
2018-04-13T02:23:07.923Z,33.10
2018-04-13T02:24:07.833Z,31.80
2018-04-13T02:25:07.743Z,31.10
2018-04-13T02:26:07.638Z,35.00
2018-04-13T02:27:07.797Z,35.50
2018-04-13T02:28:07.456Z,34.10
2018-04-13T02:29:07.353Z,36.60
2018-04-13T02:30:07.263Z,33.30
2018-04-13T02:31:07.171Z,33.00
2018-04-13T02:32:07.080Z,38.40
2018-04-13T02:33:06.977Z,34.20
2018-04-13T02:34:06.886Z,34.50
2018-04-13T02:35:06.783Z,35.70
2018-04-13T02:36:06.693Z,36.60
2018-04-13T02:37:06.602Z,35.00
2018-04-13T02:38:06.498Z,39.10
2018-04-13T02:39:06.408Z,40.30
2018-04-13T02:40:06.316Z,33.70
2018-04-13T02:41:06.214Z,35.60
2018-04-13T02:42:06.124Z,31.40
2018-04-13T02:43:06.020Z,34.40
2018-04-13T02:44:05.930Z,34.00
2018-04-13T02:45:05.838Z,31.20
2018-04-13T02:46:05.738Z,34.70
2018-04-13T02:47:05.644Z,34.00
2018-04-13T02:48:05.555Z,35.20
2018-04-13T02:49:05.450Z,33.80
2018-04-13T02:50:05.372Z,36.50
2018-04-13T02:51:05.268Z,34.70
2018-04-13T02:52:05.164Z,33.00
2018-04-13T02:53:05.072Z,36.60
2018-04-13T02:54:04.983Z,31.90
2018-04-13T02:55:04.880Z,34.10
2018-04-13T02:56:04.788Z,35.90
2018-04-13T02:57:04.696Z,33.30
2018-04-13T02:58:04.594Z,37.30
2018-04-13T02:59:04.503Z,33.50
2018-04-13T03:00:04.412Z,35.90
2018-04-13T03:01:04.309Z,34.60
2018-04-13T03:02:04.216Z,34.70
2018-04-13T03:03:04.115Z,30.50
2018-04-13T03:04:04.023Z,33.00
2018-04-13T03:05:03.931Z,33.60
2018-04-13T03:06:03.829Z,34.00
2018-04-13T03:07:03.738Z,35.70
2018-04-13T03:08:03.648Z,34.10
2018-04-13T03:09:03.543Z,34.10
2018-04-13T03:10:03.453Z,32.90
2018-04-13T03:11:03.363Z,34.80
2018-04-13T03:12:03.259Z,36.00
2018-04-13T03:13:03.170Z,30.80
2018-04-13T03:14:03.078Z,32.90
2018-04-13T03:15:02.975Z,34.20
2018-04-13T03:16:02.884Z,32.90
2018-04-13T03:17:02.781Z,31.60
2018-04-13T03:18:02.691Z,29.50
2018-04-13T03:19:02.600Z,32.20
2018-04-13T03:20:02.497Z,33.90
2018-04-13T03:21:02.418Z,32.80
2018-04-13T03:22:02.314Z,31.20
2018-04-13T03:23:02.211Z,32.20
2018-04-13T03:24:02.122Z,31.50
2018-04-13T03:25:02.030Z,29.20
2018-04-13T03:26:01.926Z,29.60
2018-04-13T03:27:02.085Z,30.10
2018-04-13T03:28:01.744Z,32.90
2018-04-13T03:29:01.645Z,31.10
2018-04-13T03:30:01.550Z,29.60
2018-04-13T03:31:01.448Z,34.40
2018-04-13T03:32:01.357Z,29.80
2018-04-13T03:33:01.264Z,31.30
2018-04-13T03:34:01.163Z,33.80
2018-04-13T03:35:01.071Z,28.90
2018-04-13T03:36:00.979Z,33.30
2018-04-13T03:37:00.877Z,32.30
2018-04-13T03:38:00.786Z,28.10
2018-04-13T03:39:00.694Z,30.30
2018-04-13T03:40:00.590Z,33.20
2018-04-13T03:41:00.504Z,31.50
2018-04-13T03:42:00.398Z,28.90
2018-04-13T03:43:00.305Z,32.30
2018-04-13T03:44:00.217Z,33.00
2018-04-13T03:45:00.112Z,29.00
2018-04-13T03:46:00.021Z,29.20
2018-04-13T03:46:59.933Z,32.60
2018-04-13T03:47:59.827Z,32.90
2018-04-13T03:48:59.737Z,33.20
2018-04-13T03:49:59.647Z,31.30
2018-04-13T03:50:59.543Z,31.50
2018-04-13T03:51:59.451Z,29.90
2018-04-13T03:52:59.349Z,34.10
2018-04-13T03:53:59.261Z,30.00
2018-04-13T03:54:59.166Z,33.00
2018-04-13T03:55:59.063Z,32.80
2018-04-13T03:56:58.976Z,31.50
2018-04-13T03:57:58.881Z,33.00
2018-04-13T03:58:58.778Z,30.00
2018-04-13T03:59:58.688Z,31.10
2018-04-13T04:00:58.595Z,32.40
2018-04-13T04:01:58.493Z,33.40
2018-04-13T04:02:58.403Z,31.10
2018-04-13T04:03:58.311Z,33.60
2018-04-13T04:04:58.207Z,31.00
2018-04-13T04:05:58.117Z,31.40
2018-04-13T04:06:58.025Z,31.40
2018-04-13T04:07:57.925Z,31.80
2018-04-13T04:08:57.832Z,30.20
2018-04-13T04:09:57.729Z,34.20
2018-04-13T04:10:57.666Z,32.80
2018-04-13T04:11:57.546Z,28.70
2018-04-13T04:12:57.445Z,32.50
2018-04-13T04:13:57.352Z,30.30
2018-04-13T04:14:57.263Z,28.60
2018-04-13T04:15:57.159Z,32.10
2018-04-13T04:16:57.067Z,34.10
2018-04-13T04:17:56.979Z,30.30
2018-04-13T04:18:56.873Z,35.10
2018-04-13T04:19:56.782Z,33.80
2018-04-13T04:20:56.693Z,32.80
2018-04-13T04:21:56.591Z,31.50
2018-04-13T04:22:56.497Z,36.20
2018-04-13T04:23:56.407Z,32.00
2018-04-13T04:24:56.304Z,28.70
2018-04-13T04:25:56.226Z,32.50
2018-04-13T04:26:56.122Z,29.10
2018-04-13T04:27:56.018Z,35.60
2018-04-13T04:28:55.928Z,29.80
2018-04-13T04:29:55.838Z,31.90
2018-04-13T04:30:55.733Z,32.30
2018-04-13T04:31:55.642Z,30.60
2018-04-13T04:32:55.552Z,33.30
2018-04-13T04:33:55.449Z,32.70
2018-04-13T04:34:55.359Z,31.90
2018-04-13T04:35:55.268Z,32.50
2018-04-13T04:36:55.164Z,30.90
2018-04-13T04:37:55.072Z,33.10
2018-04-13T04:38:54.983Z,36.00
2018-04-13T04:39:54.880Z,35.70
2018-04-13T04:40:54.787Z,32.80
2018-04-13T04:41:54.686Z,30.40
2018-04-13T04:42:54.601Z,27.80
2018-04-13T04:43:54.502Z,29.90
2018-04-13T04:44:54.401Z,34.20
2018-04-13T04:45:54.309Z,32.40
2018-04-13T04:46:54.218Z,32.40
2018-04-13T04:47:54.127Z,33.10
2018-04-13T04:48:54.024Z,32.50
2018-04-13T04:49:53.932Z,31.30
2018-04-13T04:50:53.843Z,33.10
2018-04-13T04:51:53.743Z,34.40
2018-04-13T04:52:53.649Z,34.20
2018-04-13T04:53:53.559Z,32.30
2018-04-13T04:54:53.457Z,35.90
2018-04-13T04:55:53.364Z,34.50
2018-04-13T04:56:53.273Z,33.00
2018-04-13T04:57:53.170Z,30.90
2018-04-13T04:58:53.079Z,35.60
2018-04-13T04:59:52.989Z,29.50
2018-04-13T05:00:52.886Z,33.10
2018-04-13T05:01:52.794Z,34.90
2018-04-13T05:02:52.704Z,30.20
2018-04-13T05:03:52.601Z,33.40
2018-04-13T05:04:52.510Z,33.70
2018-04-13T05:05:52.419Z,31.60
2018-04-13T05:06:52.316Z,30.00
2018-04-13T05:07:52.225Z,34.10
2018-04-13T05:08:52.137Z,33.90
2018-04-13T05:09:52.043Z,32.00
2018-04-13T05:10:51.940Z,33.30
2018-04-13T05:11:51.885Z,35.30
2018-04-13T05:12:51.762Z,35.40
2018-04-13T05:13:51.670Z,35.10
2018-04-13T05:14:51.565Z,33.30
2018-04-13T05:15:51.474Z,32.20
2018-04-13T05:16:51.370Z,30.70
2018-04-13T05:17:51.282Z,33.60
2018-04-13T05:18:51.202Z,31.70
2018-04-13T05:19:51.099Z,39.70
2018-04-13T05:20:50.995Z,36.60
2018-04-13T05:21:50.903Z,31.50
2018-04-13T05:22:50.813Z,34.40
2018-04-13T05:23:50.710Z,34.30
2018-04-13T05:24:50.618Z,31.30
2018-04-13T05:25:50.529Z,35.80
2018-04-13T05:26:50.429Z,35.50
2018-04-13T05:27:50.337Z,38.40
2018-04-13T05:28:50.244Z,30.20
2018-04-13T05:29:50.152Z,30.30
2018-04-13T05:30:50.049Z,34.40
2018-04-13T05:31:49.960Z,31.50
2018-04-13T05:32:49.868Z,36.30
2018-04-13T05:33:49.766Z,31.70
2018-04-13T05:34:49.674Z,32.10
2018-04-13T05:35:49.582Z,35.60
2018-04-13T05:36:49.482Z,28.50
2018-04-13T05:37:49.390Z,33.50
2018-04-13T05:38:49.298Z,34.90
2018-04-13T05:39:49.209Z,34.30
2018-04-13T05:40:49.105Z,31.50
2018-04-13T05:41:49.012Z,34.60
2018-04-13T05:42:48.922Z,35.90
2018-04-13T05:43:48.820Z,32.70
2018-04-13T05:44:48.727Z,33.50
2018-04-13T05:45:48.637Z,33.00
2018-04-13T05:46:48.545Z,31.00
2018-04-13T05:47:48.442Z,28.70
2018-04-13T05:48:48.352Z,29.10
2018-04-13T05:49:48.261Z,32.80
2018-04-13T05:50:48.159Z,25.40
2018-04-13T05:51:48.067Z,30.00
2018-04-13T05:52:47.976Z,32.10
2018-04-13T05:53:47.888Z,30.20
2018-04-13T05:54:47.783Z,31.60
2018-04-13T05:55:47.691Z,29.70
2018-04-13T05:56:47.601Z,31.00
2018-04-13T05:57:47.497Z,30.30
2018-04-13T05:58:47.405Z,31.20
2018-04-13T05:59:47.316Z,30.10
2018-04-13T06:00:47.224Z,34.60
2018-04-13T06:01:47.121Z,29.80
2018-04-13T06:02:47.031Z,30.60
2018-04-13T06:03:46.941Z,32.00
2018-04-13T06:04:46.836Z,34.70
2018-04-13T06:05:46.745Z,31.10
2018-04-13T06:06:46.653Z,31.90
2018-04-13T06:07:46.564Z,31.10
2018-04-13T06:08:46.460Z,28.60
2018-04-13T06:09:46.369Z,31.60
2018-04-13T06:10:46.282Z,31.70
2018-04-13T06:11:46.187Z,32.70
2018-04-13T06:12:46.085Z,29.80
2018-04-13T06:13:45.994Z,29.30
2018-04-13T06:14:45.903Z,29.10
2018-04-13T06:15:45.800Z,30.30
2018-04-13T06:16:45.709Z,31.50
2018-04-13T06:17:45.617Z,28.20
2018-04-13T06:18:45.577Z,32.80
2018-04-13T06:19:45.423Z,29.60
2018-04-13T06:20:45.333Z,28.90
2018-04-13T06:21:45.243Z,30.50
2018-04-13T06:22:45.151Z,30.80
2018-04-13T06:23:45.048Z,28.90
2018-04-13T06:24:44.957Z,29.70
2018-04-13T06:25:44.866Z,30.50
2018-04-13T06:26:44.764Z,30.20
2018-04-13T06:27:44.675Z,27.00
2018-04-13T06:28:44.581Z,28.50
2018-04-13T06:29:44.490Z,28.60
2018-04-13T06:30:44.387Z,31.40
2018-04-13T06:31:44.295Z,25.70
2018-04-13T06:32:44.207Z,34.30
2018-04-13T06:33:44.114Z,28.30
2018-04-13T06:34:44.012Z,28.80
2018-04-13T06:35:43.921Z,25.60
2018-04-13T06:36:43.829Z,33.20
2018-04-13T06:37:43.740Z,26.30
2018-04-13T06:38:43.636Z,28.60
2018-04-13T06:39:43.547Z,30.60
2018-04-13T06:40:43.455Z,30.10
2018-04-13T06:41:43.351Z,33.50
2018-04-13T06:42:43.264Z,28.00
2018-04-13T06:43:43.208Z,25.80
2018-04-13T06:44:43.079Z,27.00
2018-04-13T06:45:42.987Z,29.70
2018-04-13T06:46:42.884Z,29.50
2018-04-13T06:47:42.793Z,27.60
2018-04-13T06:48:42.719Z,26.50
2018-04-13T06:49:42.600Z,24.00
2018-04-13T06:50:42.508Z,27.40
2018-04-13T06:51:42.417Z,29.20
2018-04-13T06:52:42.319Z,28.40
2018-04-13T06:53:42.223Z,26.80
2018-04-13T06:54:42.133Z,25.30
2018-04-13T06:55:42.030Z,27.20
2018-04-13T06:56:41.950Z,27.50
2018-04-13T06:57:41.849Z,27.70
2018-04-13T06:58:41.756Z,26.40
2018-04-13T06:59:41.653Z,25.60
2018-04-13T07:00:41.563Z,32.30
2018-04-13T07:01:41.460Z,28.10
2018-04-13T07:02:41.381Z,26.10
2018-04-13T07:03:41.278Z,31.60
2018-04-13T07:04:41.175Z,30.40
2018-04-13T07:05:41.084Z,34.30
2018-04-13T07:06:40.994Z,34.20
2018-04-13T07:07:40.891Z,29.00
2018-04-13T07:08:40.798Z,38.70
2018-04-13T07:09:40.708Z,32.00
2018-04-13T07:10:40.604Z,31.90
2018-04-13T07:11:40.513Z,37.30
2018-04-13T07:12:40.412Z,36.60
2018-04-13T07:13:40.353Z,35.30
2018-04-13T07:14:40.231Z,36.30
2018-04-13T07:15:40.127Z,36.20
2018-04-13T07:16:40.035Z,36.70
2018-04-13T07:17:39.933Z,39.40
2018-04-13T07:18:39.846Z,39.00
2018-04-13T07:19:39.738Z,39.70
2018-04-13T07:20:39.647Z,40.80
2018-04-13T07:21:39.855Z,37.50
2018-04-13T07:22:39.452Z,34.80
2018-04-13T07:23:39.366Z,40.70
2018-04-13T07:24:39.262Z,37.90
2018-04-13T07:25:39.167Z,34.20
2018-04-13T07:26:39.073Z,35.40
2018-04-13T07:27:38.974Z,37.10
2018-04-13T07:28:38.871Z,42.50
2018-04-13T07:29:38.784Z,36.60
2018-04-13T07:30:38.677Z,36.40
2018-04-13T07:31:38.586Z,36.30
2018-04-13T07:32:38.482Z,37.10
2018-04-13T07:33:38.843Z,36.30
2018-04-13T07:34:38.305Z,36.90
2018-04-13T07:35:38.198Z,38.20
2018-04-13T07:36:38.106Z,35.90
2018-04-13T07:37:38.006Z,41.10
2018-04-13T07:38:37.912Z,40.20
2018-04-13T07:39:37.809Z,40.80
2018-04-13T07:40:37.732Z,41.10
2018-04-13T07:41:37.865Z,40.80
2018-04-13T07:42:37.525Z,38.00
2018-04-13T07:43:37.422Z,41.90
2018-04-13T07:44:37.329Z,38.70
2018-04-13T07:45:37.226Z,39.80
2018-04-13T07:46:37.136Z,37.10
2018-04-13T07:47:37.034Z,35.60
2018-04-13T07:48:36.941Z,37.80
2018-04-13T07:49:37.391Z,43.90
2018-04-13T07:50:36.752Z,37.90
2018-04-13T07:51:36.656Z,42.30
2018-04-13T07:52:36.567Z,40.10
2018-04-13T07:53:36.464Z,40.20
2018-04-13T07:54:36.361Z,41.20
2018-04-13T07:55:36.274Z,38.50
2018-04-13T07:56:36.165Z,39.10
2018-04-13T07:57:36.075Z,39.00
2018-04-13T07:58:35.972Z,40.40
2018-04-13T07:59:35.879Z,40.30
2018-04-13T08:00:35.777Z,41.90
2018-04-13T08:01:35.687Z,45.30
2018-04-13T08:02:35.587Z,46.70
2018-04-13T08:03:35.493Z,43.10
2018-04-13T08:04:35.388Z,47.60
2018-04-13T08:05:35.299Z,50.60
2018-04-13T08:06:35.196Z,49.90
2018-04-13T08:07:35.103Z,50.90
2018-04-13T08:08:35.001Z,52.10
2018-04-13T08:09:34.910Z,55.80
2018-04-13T08:10:34.901Z,49.50
2018-04-13T08:11:34.715Z,51.90
2018-04-13T08:12:34.612Z,53.20
2018-04-13T08:13:34.522Z,51.70
2018-04-13T08:14:34.418Z,51.00
2018-04-13T08:15:34.536Z,49.50
2018-04-13T08:16:34.224Z,46.60
2018-04-13T08:17:34.133Z,48.20
2018-04-13T08:18:34.030Z,51.50
2018-04-13T08:19:33.952Z,47.20
2018-04-13T08:20:33.835Z,53.50
2018-04-13T08:21:33.745Z,49.70
2018-04-13T08:22:33.642Z,48.60
2018-04-13T08:23:33.551Z,48.30
2018-04-13T08:24:33.447Z,43.90
2018-04-13T08:25:33.358Z,53.70
2018-04-13T08:26:33.256Z,55.00
2018-04-13T08:27:33.166Z,47.40
2018-04-13T08:28:33.059Z,57.20
2018-04-13T08:29:32.969Z,52.50
2018-04-13T08:30:32.868Z,50.80
2018-04-13T08:31:32.774Z,55.20
2018-04-13T08:32:32.671Z,53.10
2018-04-13T08:33:32.582Z,53.40
2018-04-13T08:34:32.480Z,53.90
2018-04-13T08:35:32.436Z,59.40
2018-04-13T08:36:32.284Z,46.00
2018-04-13T08:37:32.193Z,57.10
2018-04-13T08:38:32.103Z,48.70
2018-04-13T08:39:31.997Z,49.30
2018-04-13T08:40:31.915Z,47.10
2018-04-13T08:41:31.804Z,47.10
2018-04-13T08:42:31.712Z,45.30
2018-04-13T08:43:31.682Z,40.40
2018-04-13T08:44:31.523Z,43.70
2018-04-13T08:45:31.433Z,46.50
2018-04-13T08:46:31.324Z,43.20
2018-04-13T08:47:31.237Z,40.90
2018-04-13T08:48:31.133Z,41.60
2018-04-13T08:49:31.113Z,38.50
2018-04-13T08:50:30.954Z,43.40
2018-04-13T08:51:30.845Z,42.90
2018-04-13T08:52:30.755Z,42.90
2018-04-13T08:53:30.654Z,41.50
2018-04-13T08:54:30.562Z,40.40
2018-04-13T08:55:30.469Z,40.20
2018-04-13T08:56:30.370Z,44.10
2018-04-13T08:57:30.284Z,44.30
2018-04-13T08:58:30.187Z,41.40
2018-04-13T08:59:30.081Z,41.50
2018-04-13T09:00:29.991Z,42.20
2018-04-13T09:01:30.156Z,42.10
2018-04-13T09:02:29.801Z,41.90
2018-04-13T09:03:29.707Z,40.80
2018-04-13T09:04:29.616Z,45.10
2018-04-13T09:05:29.511Z,41.10
2018-04-13T09:06:29.478Z,36.70
2018-04-13T09:07:29.343Z,39.20
2018-04-13T09:08:29.226Z,36.70
2018-04-13T09:09:29.136Z,39.50
2018-04-13T09:10:29.045Z,35.60
2018-04-13T09:11:28.942Z,35.70
2018-04-13T09:12:28.851Z,39.20
2018-04-13T09:13:28.764Z,39.40
2018-04-13T09:14:28.659Z,38.90
2018-04-13T09:15:28.566Z,40.50
2018-04-13T09:16:28.475Z,38.70
2018-04-13T09:17:28.384Z,37.30
2018-04-13T09:18:28.282Z,38.70
2018-04-13T09:19:28.191Z,36.40
2018-04-13T09:20:28.102Z,33.00
2018-04-13T09:21:27.997Z,34.00
2018-04-13T09:22:27.905Z,40.20
2018-04-13T09:23:27.814Z,36.50
2018-04-13T09:24:27.739Z,33.50
2018-04-13T09:25:27.619Z,33.10
2018-04-13T09:26:27.530Z,35.90
2018-04-13T09:27:27.438Z,34.40
2018-04-13T09:28:27.348Z,35.00
2018-04-13T09:29:27.249Z,30.50
2018-04-13T09:30:27.154Z,31.40
2018-04-13T09:31:27.063Z,31.40
2018-04-13T09:32:26.971Z,33.50
2018-04-13T09:33:26.882Z,31.80
2018-04-13T09:34:26.783Z,38.00
2018-04-13T09:35:26.687Z,32.00
2018-04-13T09:36:26.598Z,32.20
2018-04-13T09:37:26.509Z,31.60
2018-04-13T09:38:26.403Z,30.10
2018-04-13T09:39:26.311Z,28.90
2018-04-13T09:40:26.221Z,31.20
2018-04-13T09:41:26.131Z,28.00
2018-04-13T09:42:26.040Z,31.50
2018-04-13T09:43:25.937Z,28.70
2018-04-13T09:44:25.880Z,30.00
2018-04-13T09:45:25.753Z,31.90
2018-04-13T09:46:25.664Z,26.20
2018-04-13T09:47:25.571Z,29.50
2018-04-13T09:48:25.468Z,29.80
2018-04-13T09:49:25.387Z,28.10
2018-04-13T09:50:25.286Z,28.90
2018-04-13T09:51:25.196Z,29.80
2018-04-13T09:52:25.094Z,30.50
2018-04-13T09:53:25.005Z,27.20
2018-04-13T09:54:24.911Z,27.40
2018-04-13T09:55:24.820Z,27.10
2018-04-13T09:56:24.734Z,22.20
2018-04-13T09:57:24.627Z,23.00
2018-04-13T09:58:24.537Z,29.70
2018-04-13T09:59:24.445Z,25.30
2018-04-13T10:00:24.354Z,24.00
2018-04-13T10:01:24.267Z,24.30
2018-04-13T10:02:24.161Z,23.80
2018-04-13T10:03:24.069Z,25.80
2018-04-13T10:04:23.978Z,25.80
2018-04-13T10:05:23.887Z,26.00
2018-04-13T10:06:23.798Z,22.60
2018-04-13T10:07:23.707Z,25.50
2018-04-13T10:08:23.606Z,28.00
2018-04-13T10:09:23.512Z,25.10
2018-04-13T10:10:23.420Z,30.40
2018-04-13T10:11:23.331Z,22.60
2018-04-13T10:12:23.238Z,26.60
2018-04-13T10:13:23.137Z,26.30
2018-04-13T10:14:23.046Z,27.60
2018-04-13T10:15:22.953Z,26.40
2018-04-13T10:16:22.867Z,25.70
2018-04-13T10:17:22.772Z,30.30
2018-04-13T10:18:22.675Z,26.70
2018-04-13T10:19:22.580Z,21.70
2018-04-13T10:20:22.487Z,26.40
2018-04-13T10:21:22.397Z,27.00
2018-04-13T10:22:22.308Z,26.80
2018-04-13T10:23:22.203Z,29.00
2018-04-13T10:24:22.113Z,30.10
2018-04-13T10:25:22.021Z,29.80
2018-04-13T10:26:21.933Z,30.10
2018-04-13T10:27:21.830Z,31.90
2018-04-13T10:28:21.736Z,28.60
2018-04-13T10:29:21.646Z,29.10
2018-04-13T10:30:21.553Z,24.40
2018-04-13T10:31:21.451Z,32.00
2018-04-13T10:32:21.361Z,29.90
2018-04-13T10:33:21.269Z,35.40
2018-04-13T10:34:21.179Z,31.60
2018-04-13T10:35:21.076Z,31.80
2018-04-13T10:36:20.997Z,33.20
2018-04-13T10:37:20.894Z,33.10
2018-04-13T10:38:20.794Z,34.10
2018-04-13T10:39:20.699Z,33.20
2018-04-13T10:40:20.610Z,34.50
2018-04-13T10:41:20.517Z,30.80
2018-04-13T10:42:20.414Z,32.40
2018-04-13T10:43:20.324Z,32.20
2018-04-13T10:44:20.232Z,32.00
2018-04-13T10:45:20.142Z,31.90
2018-04-13T10:46:20.040Z,33.30
2018-04-13T10:47:19.947Z,33.10
2018-04-13T10:48:19.858Z,35.10
2018-04-13T10:49:19.816Z,32.30
2018-04-13T10:50:19.662Z,41.20
2018-04-13T10:51:19.573Z,34.60
2018-04-13T10:52:19.480Z,33.70
2018-04-13T10:53:19.379Z,32.20
2018-04-13T10:54:19.287Z,33.50
2018-04-13T10:55:19.195Z,35.30
2018-04-13T10:56:19.106Z,37.10
2018-04-13T10:57:19.002Z,32.90
2018-04-13T10:58:18.911Z,34.40
2018-04-13T10:59:18.826Z,36.20
2018-04-13T11:00:18.730Z,43.00
2018-04-13T11:01:18.626Z,39.60
2018-04-13T11:02:18.538Z,44.40
2018-04-13T11:03:18.444Z,42.80
2018-04-13T11:04:18.341Z,43.50
2018-04-13T11:05:18.251Z,36.70
2018-04-13T11:06:18.160Z,43.30
2018-04-13T11:07:18.060Z,45.80
2018-04-13T11:08:17.966Z,49.90
2018-04-13T11:09:17.875Z,45.20
2018-04-13T11:10:17.795Z,34.10
2018-04-13T11:11:17.682Z,39.50
2018-04-13T11:12:17.589Z,40.20
2018-04-13T11:13:17.499Z,39.80
2018-04-13T11:14:17.396Z,37.00
2018-04-13T11:15:17.304Z,38.70
2018-04-13T11:16:17.200Z,38.80
2018-04-13T11:17:17.111Z,34.70
2018-04-13T11:18:17.008Z,37.10
2018-04-13T11:19:16.917Z,38.70
2018-04-13T11:20:16.828Z,41.90
2018-04-13T11:21:16.722Z,38.10
2018-04-13T11:22:16.631Z,41.00
2018-04-13T11:23:16.541Z,38.40
2018-04-13T11:24:16.438Z,37.00
2018-04-13T11:25:16.345Z,38.80
2018-04-13T11:26:16.256Z,34.30
2018-04-13T11:27:16.151Z,34.20
2018-04-13T11:28:16.060Z,34.20
2018-04-13T11:29:15.973Z,34.90
2018-04-13T11:30:15.868Z,34.90
2018-04-13T11:31:15.775Z,31.10
2018-04-13T11:32:15.677Z,34.80
2018-04-13T11:33:15.582Z,30.80
2018-04-13T11:34:15.490Z,30.60
2018-04-13T11:35:15.388Z,30.80
2018-04-13T11:36:15.297Z,28.00
2018-04-13T11:37:15.205Z,31.40
2018-04-13T11:38:15.101Z,30.40
2018-04-13T11:39:15.012Z,34.00
2018-04-13T11:40:14.920Z,31.30
2018-04-13T11:41:14.818Z,29.30
2018-04-13T11:42:14.728Z,32.50
2018-04-13T11:43:14.636Z,33.40
2018-04-13T11:44:14.532Z,32.90
2018-04-13T11:45:14.442Z,25.80
2018-04-13T11:46:14.350Z,31.60
2018-04-13T11:47:14.248Z,30.50
2018-04-13T11:48:14.164Z,31.90
2018-04-13T11:49:14.066Z,27.50
2018-04-13T11:50:13.975Z,25.70
2018-04-13T11:51:13.883Z,24.90
2018-04-13T11:52:13.784Z,27.00
2018-04-13T11:53:13.690Z,26.10
2018-04-13T11:54:13.599Z,27.60
2018-04-13T11:55:13.500Z,26.30
2018-04-13T11:56:13.406Z,28.90
2018-04-13T11:57:13.313Z,24.80
2018-04-13T11:58:13.224Z,21.80
2018-04-13T11:59:13.132Z,17.40
2018-04-13T12:00:13.030Z,17.60
2018-04-13T12:01:12.942Z,23.50
2018-04-13T12:02:12.847Z,21.80
2018-04-13T12:03:12.758Z,20.50
2018-04-13T12:04:12.678Z,23.30
2018-04-13T12:05:12.562Z,20.10
2018-04-13T12:06:12.472Z,17.60
2018-04-13T12:07:12.380Z,21.60
2018-04-13T12:08:12.290Z,19.70
2018-04-13T12:09:12.199Z,17.60
2018-04-13T12:10:12.109Z,18.10
2018-04-13T12:11:12.007Z,24.20
2018-04-13T12:12:11.914Z,19.10
2018-04-13T12:13:11.824Z,18.20
2018-04-13T12:14:11.732Z,18.10
2018-04-13T12:15:11.642Z,19.20
2018-04-13T12:16:11.551Z,17.90
2018-04-13T12:17:11.462Z,20.70
2018-04-13T12:18:11.358Z,19.80
2018-04-13T12:19:11.267Z,16.50
2018-04-13T12:20:11.179Z,15.60
2018-04-13T12:21:11.085Z,18.50
2018-04-13T12:22:10.996Z,17.30
2018-04-13T12:23:10.904Z,19.40
2018-04-13T12:24:10.815Z,20.70
2018-04-13T12:25:10.724Z,17.10
2018-04-13T12:26:10.633Z,14.50
2018-04-13T12:27:10.540Z,15.10
2018-04-13T12:28:10.438Z,16.00
2018-04-13T12:29:10.347Z,14.10
2018-04-13T12:30:10.257Z,17.30
2018-04-13T12:31:10.177Z,16.70
2018-04-13T12:32:10.074Z,17.30
2018-04-13T12:33:09.985Z,20.20
2018-04-13T12:34:09.892Z,18.30
2018-04-13T12:35:09.803Z,15.40
2018-04-13T12:36:09.711Z,15.50
2018-04-13T12:37:09.621Z,16.90
2018-04-13T12:38:09.529Z,15.10
2018-04-13T12:39:09.439Z,16.80
2018-04-13T12:40:09.348Z,16.80
2018-04-13T12:41:09.257Z,19.00
2018-04-13T12:42:09.166Z,17.70
2018-04-13T12:43:09.075Z,16.70
2018-04-13T12:44:08.984Z,16.30
2018-04-13T12:45:08.894Z,16.50
2018-04-13T12:46:08.802Z,17.30
2018-04-13T12:47:08.712Z,17.40
2018-04-13T12:48:08.621Z,18.00
2018-04-13T12:49:08.519Z,15.20
2018-04-13T12:50:08.428Z,15.90
2018-04-13T12:51:08.337Z,17.50